createdAt,value
2019-05-28T00:00:22.114Z,50.20
2019-05-28T00:02:48.510Z,50.30
2019-05-28T00:05:15.636Z,50.50
2019-05-28T00:07:41.910Z,50.40
2019-05-28T00:10:09.173Z,50.40
2019-05-28T00:12:35.755Z,50.50
2019-05-28T00:15:03.014Z,50.50
2019-05-28T00:17:29.394Z,50.60
2019-05-28T00:19:55.825Z,50.40
2019-05-28T00:22:22.156Z,50.50
2019-05-28T00:24:50.754Z,50.60
2019-05-28T00:27:16.968Z,50.70
2019-05-28T00:29:43.399Z,50.80
2019-05-28T00:32:09.731Z,50.70
2019-05-28T00:34:36.062Z,50.80
2019-05-28T00:37:03.013Z,50.80
2019-05-28T00:39:29.441Z,50.80
2019-05-28T00:41:55.857Z,51.10
2019-05-28T00:44:22.204Z,50.90
2019-05-28T00:46:48.535Z,51.00
2019-05-28T00:49:14.863Z,51.20
2019-05-28T00:51:41.930Z,51.30
2019-05-28T00:54:08.446Z,51.30
2019-05-28T00:56:35.604Z,51.30
2019-05-28T00:59:02.129Z,51.40
2019-05-28T01:01:28.568Z,51.50
2019-05-28T01:03:54.894Z,51.50
2019-05-28T01:06:21.240Z,51.60
2019-05-28T01:08:47.882Z,51.80
2019-05-28T01:11:14.396Z,51.90
2019-05-28T01:13:40.931Z,52.10
2019-05-28T01:16:07.251Z,52.20
2019-05-28T01:18:33.593Z,52.20
2019-05-28T01:20:59.921Z,52.20
2019-05-28T01:23:26.253Z,52.30
2019-05-28T01:25:52.555Z,52.40
2019-05-28T01:28:18.913Z,52.50
2019-05-28T01:30:56.160Z,52.50
2019-05-28T01:33:13.316Z,52.50
2019-05-28T01:35:39.755Z,52.60
2019-05-28T01:38:08.660Z,52.80
2019-05-28T01:40:35.178Z,53.00
2019-05-28T01:43:01.607Z,53.40
2019-05-28T01:45:27.939Z,53.60
2019-05-28T01:47:57.464Z,53.60
2019-05-28T01:50:22.412Z,53.60
2019-05-28T01:53:08.599Z,54.40
2019-05-28T01:55:34.973Z,53.10
2019-05-28T01:58:01.402Z,54.10
2019-05-28T02:00:28.899Z,54.40
2019-05-28T02:02:55.396Z,54.40
2019-05-28T02:05:22.151Z,54.80
2019-05-28T02:07:48.800Z,55.10
2019-05-28T02:10:16.606Z,55.00
2019-05-28T02:12:42.894Z,55.20
2019-05-28T02:15:11.038Z,55.80
2019-05-28T02:17:37.370Z,56.00
2019-05-28T02:20:08.589Z,56.00
2019-05-28T02:22:34.947Z,56.60
2019-05-28T02:25:01.392Z,56.20
2019-05-28T02:27:27.732Z,56.30
2019-05-28T02:29:54.145Z,56.40
2019-05-28T02:32:20.473Z,56.60
2019-05-28T02:34:46.803Z,56.90
2019-05-28T02:37:13.150Z,56.70
2019-05-28T02:39:39.570Z,56.80
2019-05-28T02:42:06.105Z,56.90
2019-05-28T02:44:32.432Z,57.10
2019-05-28T02:46:58.763Z,57.30
2019-05-28T02:49:25.094Z,57.20
2019-05-28T02:51:52.343Z,57.30
2019-05-28T02:54:19.086Z,57.60
2019-05-28T02:56:48.096Z,57.40
2019-05-28T02:59:15.737Z,57.90
2019-05-28T03:01:44.651Z,57.80
2019-05-28T03:04:13.316Z,58.00
2019-05-28T03:06:40.257Z,57.90
2019-05-28T03:09:06.796Z,58.00
2019-05-28T03:11:33.123Z,58.00
2019-05-28T03:13:59.659Z,58.20
2019-05-28T03:16:29.164Z,58.20
2019-05-28T03:18:57.341Z,58.30
2019-05-28T03:21:25.412Z,58.60
2019-05-28T03:23:55.256Z,59.00
2019-05-28T03:26:23.674Z,59.20
2019-05-28T03:28:49.807Z,59.20
2019-05-28T03:31:16.107Z,59.30
2019-05-28T03:33:42.488Z,59.50
2019-05-28T03:36:11.173Z,59.60
2019-05-28T03:38:38.528Z,59.80
2019-05-28T03:41:04.872Z,60.20
2019-05-28T03:43:31.191Z,60.40
2019-05-28T03:45:57.522Z,60.70
2019-05-28T03:48:23.852Z,60.80
2019-05-28T03:50:50.181Z,61.00
2019-05-28T03:53:16.511Z,61.40
2019-05-28T03:55:42.795Z,61.80
2019-05-28T03:58:09.490Z,61.90
2019-05-28T04:00:35.911Z,61.90
2019-05-28T04:03:02.551Z,62.20
2019-05-28T04:05:29.493Z,62.60
2019-05-28T04:07:55.927Z,62.50
2019-05-28T04:10:22.596Z,62.50
2019-05-28T04:12:49.225Z,62.50
2019-05-28T04:15:15.634Z,62.60
2019-05-28T04:17:41.966Z,62.30
2019-05-28T04:20:08.910Z,62.50
2019-05-28T04:22:35.343Z,62.50
2019-05-28T04:25:03.629Z,62.60
2019-05-28T04:27:29.958Z,62.80
2019-05-28T04:29:56.281Z,62.60
2019-05-28T04:32:38.981Z,62.80
2019-05-28T04:34:50.772Z,62.70
2019-05-28T04:37:17.115Z,62.70
2019-05-28T04:39:43.549Z,63.00
2019-05-28T04:42:09.982Z,63.20
2019-05-28T04:44:36.309Z,63.40
2019-05-28T04:47:02.702Z,63.50
2019-05-28T04:49:29.075Z,63.70
2019-05-28T04:51:55.406Z,63.50
2019-05-28T04:54:21.736Z,63.40
2019-05-28T04:56:48.064Z,63.60
2019-05-28T04:59:14.298Z,63.90
2019-05-28T05:01:40.630Z,63.90
2019-05-28T05:04:06.954Z,64.40
2019-05-28T05:06:35.164Z,64.80
2019-05-28T05:09:01.459Z,65.40
2019-05-28T05:11:27.787Z,66.10
2019-05-28T05:13:54.219Z,66.80
2019-05-28T05:16:20.552Z,67.70
2019-05-28T05:18:46.980Z,68.30
2019-05-28T05:21:13.269Z,68.80
2019-05-28T05:23:39.644Z,69.70
2019-05-28T05:26:05.974Z,69.70
2019-05-28T05:28:32.553Z,70.20
2019-05-28T05:30:59.171Z,70.50
2019-05-28T05:33:25.580Z,70.70
2019-05-28T05:35:51.911Z,71.10
2019-05-28T05:38:18.246Z,71.60
2019-05-28T05:40:44.571Z,72.20
2019-05-28T05:43:11.020Z,72.60
2019-05-28T05:45:39.270Z,72.80
2019-05-28T05:48:05.519Z,73.20
2019-05-28T05:50:32.044Z,73.60
2019-05-28T05:52:58.319Z,73.70
2019-05-28T05:55:24.703Z,73.90
2019-05-28T05:57:52.705Z,74.10
2019-05-28T06:00:19.708Z,74.40
2019-05-28T06:02:46.053Z,74.00
2019-05-28T06:05:12.807Z,73.90
2019-05-28T06:07:39.314Z,73.70
2019-05-28T06:10:06.378Z,73.60
2019-05-28T06:12:32.704Z,74.00
2019-05-28T06:14:59.063Z,74.30
2019-05-28T06:17:25.367Z,74.90
2019-05-28T06:19:51.695Z,75.60
2019-05-28T06:22:18.130Z,76.30
2019-05-28T06:24:44.458Z,77.80
2019-05-28T06:27:10.890Z,78.90
2019-05-28T06:29:37.188Z,79.90
2019-05-28T06:32:03.560Z,81.00
2019-05-28T06:34:29.882Z,82.40
2019-05-28T06:36:56.213Z,83.20
2019-05-28T06:39:24.118Z,84.20
2019-05-28T06:41:50.410Z,85.00
2019-05-28T06:44:16.841Z,85.70
2019-05-28T06:49:09.825Z,87.20
2019-05-28T06:51:36.142Z,88.70
2019-05-28T06:54:02.578Z,89.90
2019-05-28T06:56:29.005Z,90.50
2019-05-28T06:58:55.354Z,91.10
2019-05-28T07:01:21.667Z,91.50
2019-05-28T07:03:47.997Z,92.00
2019-05-28T07:06:14.217Z,91.90
2019-05-28T07:08:40.661Z,91.50
2019-05-28T07:11:06.986Z,91.60
2019-05-28T07:13:33.320Z,91.40
2019-05-28T07:15:59.635Z,91.40
2019-05-28T07:18:27.649Z,91.50
2019-05-28T07:20:54.997Z,92.10
2019-05-28T07:23:21.239Z,93.90
2019-05-28T07:25:47.524Z,95.50
2019-05-28T07:28:15.819Z,95.70
2019-05-28T07:30:42.135Z,95.40
2019-05-28T07:33:08.417Z,95.10
2019-05-28T07:35:45.473Z,94.10
2019-05-28T07:38:03.072Z,93.30
2019-05-28T07:40:32.053Z,92.90
2019-05-28T07:42:57.474Z,92.90
2019-05-28T07:45:23.697Z,92.20
2019-05-28T07:47:50.009Z,92.80
2019-05-28T07:50:16.568Z,93.80
2019-05-28T07:52:43.249Z,92.90
2019-05-28T07:55:09.638Z,89.30
2019-05-28T07:57:35.984Z,87.10
2019-05-28T08:00:05.660Z,88.20
2019-05-28T08:02:32.217Z,90.00
2019-05-28T08:04:58.543Z,90.40
2019-05-28T08:07:24.798Z,90.20
2019-05-28T08:09:51.094Z,87.10
2019-05-28T08:12:17.754Z,87.00
2019-05-28T08:14:44.172Z,87.80
2019-05-28T08:17:10.452Z,89.20
2019-05-28T08:19:36.833Z,90.60
2019-05-28T08:22:03.471Z,91.20
2019-05-28T08:24:29.892Z,92.20
2019-05-28T08:26:56.234Z,91.20
2019-05-28T08:29:22.565Z,90.10
2019-05-28T08:31:48.895Z,90.00
2019-05-28T08:34:19.157Z,89.70
2019-05-28T08:36:43.463Z,85.00
2019-05-28T08:39:10.157Z,85.60
2019-05-28T08:41:36.470Z,85.60
2019-05-28T08:44:03.107Z,83.60
2019-05-28T08:46:29.495Z,85.50
2019-05-28T08:48:55.874Z,87.10
2019-05-28T08:51:22.201Z,88.70
2019-05-28T08:53:48.756Z,89.60
2019-05-28T08:56:15.163Z,87.90
2019-05-28T08:58:41.605Z,88.20
2019-05-28T09:01:07.932Z,86.10
2019-05-28T09:03:34.367Z,85.00
2019-05-28T09:06:00.913Z,76.10
2019-05-28T09:08:38.500Z,72.80
2019-05-28T09:10:55.411Z,72.30
2019-05-28T09:13:21.734Z,72.00
2019-05-28T09:15:48.066Z,74.80
2019-05-28T09:18:14.374Z,74.80
2019-05-28T09:20:40.864Z,75.80
2019-05-28T09:23:07.261Z,75.20
2019-05-28T09:25:33.592Z,73.40
2019-05-28T09:28:00.249Z,74.20
2019-05-28T09:30:26.950Z,75.80
2019-05-28T09:32:53.516Z,75.60
2019-05-28T09:35:19.836Z,76.10
2019-05-28T09:37:46.165Z,77.00
2019-05-28T09:40:12.629Z,78.30
2019-05-28T09:42:39.034Z,79.00
2019-05-28T09:45:21.393Z,79.30
2019-05-28T09:47:34.385Z,78.80
2019-05-28T09:50:02.318Z,79.20
2019-05-28T09:52:28.655Z,81.10
2019-05-28T09:54:54.988Z,78.80
2019-05-28T09:57:21.215Z,74.60
2019-05-28T09:59:47.633Z,77.30
2019-05-28T10:02:14.387Z,76.50
2019-05-28T10:04:49.250Z,76.20
2019-05-28T10:07:09.015Z,77.30
2019-05-28T10:09:35.530Z,79.10
2019-05-28T10:12:01.882Z,74.50
2019-05-28T10:14:28.288Z,73.90
2019-05-28T10:16:54.940Z,70.50
2019-05-28T10:19:21.255Z,70.30
2019-05-28T10:21:49.273Z,71.00
2019-05-28T10:24:15.559Z,71.30
2019-05-28T10:26:41.886Z,71.40
2019-05-28T10:29:08.442Z,72.20
2019-05-28T10:31:34.853Z,72.50
2019-05-28T10:34:01.221Z,72.60
2019-05-28T10:36:36.252Z,73.70
2019-05-28T10:38:55.797Z,72.60
2019-05-28T10:41:22.060Z,73.80
2019-05-28T10:43:48.378Z,72.90
2019-05-28T10:46:14.858Z,73.20
2019-05-28T10:48:41.323Z,73.70
2019-05-28T10:51:07.649Z,74.40
2019-05-28T10:53:35.567Z,74.50
2019-05-28T10:56:02.151Z,74.10
2019-05-28T10:58:28.482Z,75.50
2019-05-28T11:00:54.914Z,74.50
2019-05-28T11:03:21.129Z,74.20
2019-05-28T11:05:47.673Z,74.00
2019-05-28T11:08:14.018Z,73.50
2019-05-28T11:10:40.342Z,73.50
2019-05-28T11:13:06.668Z,73.50
2019-05-28T11:15:33.075Z,74.30
2019-05-28T11:17:59.330Z,74.20
2019-05-28T11:20:26.482Z,74.80
2019-05-28T11:22:53.408Z,75.20
2019-05-28T11:25:20.378Z,75.00
2019-05-28T11:27:46.707Z,74.30
2019-05-28T11:30:13.845Z,76.50
2019-05-28T11:32:40.281Z,76.70
2019-05-28T11:35:07.277Z,76.70
2019-05-28T11:37:33.707Z,76.00
2019-05-28T11:39:59.983Z,73.30
2019-05-28T11:42:26.422Z,73.10
2019-05-28T11:44:52.794Z,71.40
2019-05-28T11:47:19.195Z,71.40
2019-05-28T11:49:45.479Z,71.50
2019-05-28T11:52:11.784Z,71.50
2019-05-28T11:54:38.178Z,72.90
2019-05-28T11:57:04.432Z,74.10
2019-05-28T11:59:30.838Z,73.70
2019-05-28T12:01:57.169Z,74.20
2019-05-28T12:04:23.561Z,74.20
2019-05-28T12:06:49.931Z,72.70
2019-05-28T12:09:16.262Z,71.50
2019-05-28T12:11:42.592Z,71.70
2019-05-28T12:14:08.923Z,70.60
2019-05-28T12:16:35.380Z,71.70
2019-05-28T12:19:01.710Z,72.90
2019-05-28T12:21:28.016Z,74.90
2019-05-28T12:23:54.346Z,74.90
2019-05-28T12:26:20.587Z,74.60
2019-05-28T12:28:47.129Z,73.90
2019-05-28T12:31:13.440Z,73.90
2019-05-28T12:33:39.726Z,75.40
2019-05-28T12:36:08.371Z,76.20
2019-05-28T12:38:34.787Z,74.00
2019-05-28T12:41:01.126Z,74.70
2019-05-28T12:43:27.447Z,73.20
2019-05-28T12:45:53.738Z,69.40
2019-05-28T12:48:20.108Z,68.20
2019-05-28T12:50:46.443Z,69.40
2019-05-28T12:53:12.771Z,70.10
2019-05-28T12:55:39.101Z,69.80
2019-05-28T12:58:05.431Z,70.10
2019-05-28T13:00:32.277Z,68.20
2019-05-28T13:02:59.361Z,70.60
2019-05-28T13:05:28.144Z,71.40
2019-05-28T13:08:07.521Z,74.30
2019-05-28T13:10:22.733Z,72.10
2019-05-28T13:12:48.978Z,68.50
2019-05-28T13:15:17.468Z,68.60
2019-05-28T13:17:43.861Z,72.20
2019-05-28T13:20:11.969Z,70.80
2019-05-28T13:22:38.361Z,72.90
2019-05-28T13:25:05.659Z,71.00
2019-05-28T13:27:33.051Z,66.70
2019-05-28T13:29:59.358Z,65.80
2019-05-28T13:32:25.832Z,66.40
2019-05-28T13:34:52.422Z,67.20
2019-05-28T13:37:19.006Z,67.70
2019-05-28T13:39:45.486Z,68.80
2019-05-28T13:42:12.088Z,69.20
2019-05-28T13:44:38.610Z,67.00
2019-05-28T13:47:04.881Z,67.60
2019-05-28T13:49:31.502Z,68.50
2019-05-28T13:52:10.922Z,67.60
2019-05-28T13:54:25.984Z,67.20
2019-05-28T13:56:52.416Z,67.00
2019-05-28T13:59:18.772Z,67.10
2019-05-28T14:01:45.176Z,66.50
2019-05-28T14:04:11.511Z,67.60
2019-05-28T14:06:43.838Z,69.10
2019-05-28T14:09:07.546Z,69.00
2019-05-28T14:11:33.840Z,68.70
2019-05-28T14:14:00.211Z,68.20
2019-05-28T14:16:26.538Z,69.20
2019-05-28T14:18:52.868Z,65.80
2019-05-28T14:21:19.179Z,65.90
2019-05-28T14:23:45.538Z,67.90
2019-05-28T14:26:11.861Z,62.10
2019-05-28T14:28:38.074Z,65.30
2019-05-28T14:31:04.519Z,66.20
2019-05-28T14:33:30.809Z,63.80
2019-05-28T14:35:57.200Z,62.30
2019-05-28T14:38:23.506Z,59.60
2019-05-28T14:40:49.977Z,57.30
2019-05-28T14:43:16.274Z,58.30
2019-05-28T14:45:42.603Z,59.20
2019-05-28T14:48:08.835Z,58.50
2019-05-28T14:50:35.167Z,59.60
2019-05-28T14:53:01.500Z,58.50
2019-05-28T14:55:27.846Z,59.50
2019-05-28T14:57:55.950Z,58.60
2019-05-28T15:00:24.071Z,56.20
2019-05-28T15:02:50.312Z,54.90
2019-05-28T15:05:16.974Z,54.10
2019-05-28T15:07:43.370Z,53.90
2019-05-28T15:10:11.542Z,54.40
2019-05-28T15:12:37.871Z,54.10
2019-05-28T15:15:12.089Z,52.80
2019-05-28T15:17:38.426Z,53.70
2019-05-28T15:20:08.559Z,56.00
2019-05-28T15:22:34.866Z,54.80
2019-05-28T15:25:01.125Z,54.60
2019-05-28T15:27:27.527Z,54.20
2019-05-28T15:29:54.214Z,53.50
2019-05-28T15:32:20.731Z,55.30
2019-05-28T15:34:47.337Z,56.00
2019-05-28T15:37:13.890Z,54.10
2019-05-28T15:39:40.912Z,54.20
2019-05-28T15:42:07.658Z,56.30
2019-05-28T15:44:34.223Z,57.60
2019-05-28T15:47:00.630Z,58.90
2019-05-28T15:49:26.961Z,62.40
2019-05-28T15:52:07.022Z,64.40
2019-05-28T15:54:21.361Z,66.50
2019-05-28T15:56:47.690Z,69.20
2019-05-28T15:59:14.256Z,70.40
2019-05-28T16:01:40.761Z,71.00
2019-05-28T16:04:07.316Z,72.50
2019-05-28T16:06:33.623Z,74.10
2019-05-28T16:09:00.058Z,75.40
2019-05-28T16:11:26.365Z,77.40
2019-05-28T16:13:52.720Z,78.70
2019-05-28T16:16:20.212Z,79.20
2019-05-28T16:18:46.610Z,80.10
2019-05-28T16:21:13.256Z,81.20
2019-05-28T16:23:40.498Z,82.10
2019-05-28T16:26:06.829Z,83.00
2019-05-28T16:28:33.159Z,83.50
2019-05-28T16:31:11.752Z,84.00
2019-05-28T16:33:27.563Z,84.60
2019-05-28T16:35:53.892Z,84.50
2019-05-28T16:38:20.136Z,84.50
2019-05-28T16:40:46.449Z,84.60
2019-05-28T16:43:12.756Z,85.40
2019-05-28T16:45:39.111Z,85.60
2019-05-28T16:48:07.315Z,86.10
2019-05-28T16:50:33.513Z,86.60
2019-05-28T16:52:59.796Z,87.40
2019-05-28T16:55:26.177Z,88.40
2019-05-28T16:57:52.630Z,89.40
2019-05-28T17:00:20.249Z,90.10
2019-05-28T17:02:46.599Z,90.30
2019-05-28T17:05:13.853Z,90.50
2019-05-28T17:07:40.503Z,90.60
2019-05-28T17:10:07.236Z,90.10
2019-05-28T17:12:33.662Z,90.20
2019-05-28T17:15:00.304Z,89.70
2019-05-28T17:17:26.577Z,88.80
2019-05-28T17:19:52.961Z,88.00
2019-05-28T17:22:19.197Z,87.50
2019-05-28T17:24:45.672Z,86.90
2019-05-28T17:27:12.057Z,86.40
2019-05-28T17:29:38.548Z,86.40
2019-05-28T17:32:04.923Z,86.30
2019-05-28T17:34:31.352Z,86.20
2019-05-28T17:36:57.736Z,86.10
2019-05-28T17:39:24.019Z,86.70
2019-05-28T17:41:50.300Z,86.10
2019-05-28T17:44:16.674Z,85.60
2019-05-28T17:46:42.937Z,85.10
2019-05-28T17:49:09.259Z,84.60
2019-05-28T17:51:35.895Z,84.60
2019-05-28T17:54:02.209Z,85.10
2019-05-28T17:56:28.632Z,85.40
2019-05-28T17:58:54.930Z,85.20
2019-05-28T18:01:21.293Z,86.10
2019-05-28T18:03:47.731Z,86.10
2019-05-28T18:06:14.057Z,86.40
2019-05-28T18:08:40.366Z,86.60
2019-05-28T18:11:06.722Z,87.00
2019-05-28T18:13:33.049Z,87.00
2019-05-28T18:15:59.377Z,86.60
2019-05-28T18:18:25.811Z,85.70
2019-05-28T18:20:52.146Z,86.00
2019-05-28T18:23:18.437Z,86.70
2019-05-28T18:25:44.803Z,86.90
2019-05-28T18:28:11.133Z,86.60
2019-05-28T18:30:37.462Z,87.30
2019-05-28T18:33:03.754Z,88.80
2019-05-28T18:35:30.126Z,89.40
2019-05-28T18:38:03.240Z,90.10
2019-05-28T18:40:24.584Z,90.70
2019-05-28T18:42:50.960Z,89.70
2019-05-28T18:45:17.592Z,85.50
2019-05-28T18:47:44.244Z,82.70
2019-05-28T18:50:10.855Z,80.90
2019-05-28T18:52:37.325Z,79.60
2019-05-28T18:55:06.219Z,78.30
2019-05-28T18:57:32.645Z,73.90
2019-05-28T18:59:58.953Z,72.80
2019-05-28T19:02:25.304Z,71.50
2019-05-28T19:04:51.632Z,72.20
2019-05-28T19:07:18.065Z,71.10
2019-05-28T19:09:44.408Z,71.70
2019-05-28T19:12:10.725Z,70.90
2019-05-28T19:14:38.962Z,69.70
2019-05-28T19:17:05.141Z,71.20
2019-05-28T19:19:31.558Z,70.50
2019-05-28T19:21:57.991Z,69.90
2019-05-28T19:24:24.531Z,69.70
2019-05-28T19:26:51.164Z,71.00
2019-05-28T19:29:17.776Z,71.30
2019-05-28T19:31:44.158Z,70.80
2019-05-28T19:34:10.391Z,71.20
2019-05-28T19:36:36.896Z,72.00
2019-05-28T19:39:06.130Z,72.50
2019-05-28T19:41:32.630Z,72.90
2019-05-28T19:43:58.863Z,73.40
2019-05-28T19:46:25.289Z,73.90
2019-05-28T19:48:51.619Z,74.50
2019-05-28T19:51:17.952Z,74.40
2019-05-28T19:53:44.280Z,74.40
2019-05-28T19:56:10.554Z,75.10
2019-05-28T19:58:36.942Z,75.40
2019-05-28T20:01:03.478Z,75.70
2019-05-28T20:03:29.809Z,76.70
2019-05-28T20:05:56.242Z,76.10
2019-05-28T20:08:22.780Z,76.20
2019-05-28T20:10:50.790Z,76.40
2019-05-28T20:13:17.282Z,76.80
2019-05-28T20:15:43.710Z,77.00
2019-05-28T20:18:25.760Z,77.10
2019-05-28T20:20:38.114Z,77.30
2019-05-28T20:23:04.547Z,77.50
2019-05-28T20:25:30.875Z,77.60
2019-05-28T20:27:57.207Z,77.80
2019-05-28T20:30:24.358Z,77.90
2019-05-28T20:32:50.788Z,78.00
2019-05-28T20:35:17.220Z,78.00
2019-05-28T20:37:43.551Z,78.20
2019-05-28T20:40:11.059Z,78.10
2019-05-28T20:42:37.569Z,78.20
2019-05-28T20:45:08.546Z,78.20
2019-05-28T20:47:35.224Z,78.20
2019-05-28T20:50:05.583Z,78.20
2019-05-28T20:52:31.265Z,78.10
2019-05-28T20:54:57.537Z,78.70
2019-05-28T20:57:23.922Z,78.00
2019-05-28T20:59:50.255Z,78.00
2019-05-28T21:02:19.197Z,78.00
2019-05-28T21:04:44.859Z,78.20
2019-05-28T21:07:12.214Z,78.00
2019-05-28T21:09:38.442Z,78.20
2019-05-28T21:12:04.773Z,78.00
2019-05-28T21:14:31.998Z,77.40
2019-05-28T21:16:59.212Z,78.20
2019-05-28T21:19:25.912Z,78.20
2019-05-28T21:21:53.605Z,78.40
2019-05-28T21:24:20.112Z,78.40
2019-05-28T21:26:46.382Z,78.50
2019-05-28T21:29:12.691Z,78.50
2019-05-28T21:31:39.103Z,78.60
2019-05-28T21:34:05.434Z,78.50
2019-05-28T21:36:31.873Z,78.60
2019-05-28T21:38:59.330Z,78.50
2019-05-28T21:41:25.960Z,78.70
2019-05-28T21:43:52.293Z,78.50
2019-05-28T21:46:18.830Z,78.60
2019-05-28T21:48:45.157Z,78.70
2019-05-28T21:51:11.814Z,78.30
2019-05-28T21:53:38.228Z,78.40
2019-05-28T21:56:04.558Z,78.30
2019-05-28T21:58:30.993Z,78.30
2019-05-28T22:01:02.089Z,78.30
2019-05-28T22:03:28.584Z,78.30
2019-05-28T22:05:55.276Z,77.90
2019-05-28T22:08:21.636Z,78.00
2019-05-28T22:10:48.076Z,78.00
2019-05-28T22:13:21.775Z,77.80
2019-05-28T22:15:42.501Z,77.70
2019-05-28T22:18:09.153Z,77.60
2019-05-28T22:20:35.542Z,77.30
2019-05-28T22:23:02.657Z,77.40
2019-05-28T22:25:29.021Z,77.70
2019-05-28T22:27:56.457Z,77.80
2019-05-28T22:30:24.911Z,77.80
2019-05-28T22:32:51.288Z,77.90
2019-05-28T22:35:17.622Z,77.70
2019-05-28T22:37:43.848Z,77.80
2019-05-28T22:40:10.485Z,77.90
2019-05-28T22:42:37.053Z,77.90
2019-05-28T22:45:05.193Z,77.70
2019-05-28T22:47:31.524Z,77.80
2019-05-28T22:50:14.801Z,77.80
2019-05-28T22:52:25.951Z,77.70
2019-05-28T22:54:52.359Z,77.60
2019-05-28T22:57:18.690Z,77.70
2019-05-28T22:59:44.909Z,77.40
2019-05-28T23:02:11.213Z,77.30
2019-05-28T23:04:37.581Z,77.10
2019-05-28T23:07:03.910Z,77.00
2019-05-28T23:09:30.239Z,77.20
2019-05-28T23:11:56.570Z,77.40
2019-05-28T23:14:22.900Z,76.80
2019-05-28T23:16:49.231Z,76.70
2019-05-28T23:19:15.561Z,76.60
2019-05-28T23:21:41.890Z,76.60
2019-05-28T23:24:09.253Z,76.70
2019-05-28T23:26:35.793Z,77.40
2019-05-28T23:29:02.304Z,76.80
2019-05-28T23:31:28.870Z,77.00
2019-05-28T23:33:55.199Z,78.30
2019-05-28T23:36:21.498Z,77.80
2019-05-28T23:46:05.940Z,76.00
2019-05-28T23:48:32.447Z,76.70
2019-05-28T23:50:58.778Z,76.80
2019-05-28T23:53:25.110Z,76.80
2019-05-28T23:55:51.439Z,76.90
2019-05-28T23:58:18.356Z,77.00
